sensor_id;sensor_type;location;lat;lon;timestamp;P1;durP1;ratioP1;P2;durP2;ratioP2
29120;SDS011;16191;49.548;8.658;2024-02-21T00:00:23;22.17;;;5.30;;
29120;SDS011;16191;49.548;8.658;2024-02-21T00:02:50;27.52;;;5.45;;
29120;SDS011;16191;49.548;8.658;2024-02-21T00:05:17;25.88;;;6.40;;
29120;SDS011;16191;49.548;8.658;2024-02-21T00:07:43;13.23;;;4.88;;
29120;SDS011;16191;49.548;8.658;2024-02-21T00:10:10;22.95;;;6.15;;
29120;SDS011;16191;49.548;8.658;2024-02-21T00:12:37;17.98;;;4.85;;
29120;SDS011;16191;49.548;8.658;2024-02-21T00:15:03;20.67;;;5.63;;
29120;SDS011;16191;49.548;8.658;2024-02-21T00:17:30;15.02;;;5.05;;
29120;SDS011;16191;49.548;8.658;2024-02-21T00:19:57;19.25;;;5.07;;
29120;SDS011;16191;49.548;8.658;2024-02-21T00:22:24;20.10;;;5.18;;
29120;SDS011;16191;49.548;8.658;2024-02-21T00:24:54;20.20;;;6.13;;
29120;SDS011;16191;49.548;8.658;2024-02-21T00:27:21;20.85;;;5.55;;
29120;SDS011;16191;49.548;8.658;2024-02-21T00:29:48;23.92;;;5.18;;
29120;SDS011;16191;49.548;8.658;2024-02-21T00:32:14;18.90;;;5.65;;
29120;SDS011;16191;49.548;8.658;2024-02-21T00:34:41;23.02;;;5.60;;
29120;SDS011;16191;49.548;8.658;2024-02-21T00:37:08;24.95;;;5.72;;
29120;SDS011;16191;49.548;8.658;2024-02-21T00:39:35;19.27;;;5.03;;
29120;SDS011;16191;49.548;8.658;2024-02-21T00:42:01;21.08;;;5.57;;
29120;SDS011;16191;49.548;8.658;2024-02-21T00:44:28;19.67;;;5.80;;
29120;SDS011;16191;49.548;8.658;2024-02-21T00:46:55;19.50;;;4.90;;
29120;SDS011;16191;49.548;8.658;2024-02-21T00:49:22;20.92;;;5.25;;
29120;SDS011;16191;49.548;8.658;2024-02-21T00:51:49;18.92;;;4.80;;
29120;SDS011;16191;49.548;8.658;2024-02-21T00:54:15;17.20;;;4.75;;
29120;SDS011;16191;49.548;8.658;2024-02-21T00:56:42;13.88;;;4.28;;
29120;SDS011;16191;49.548;8.658;2024-02-21T00:59:09;19.65;;;4.70;;
29120;SDS011;16191;49.548;8.658;2024-02-21T01:01:36;24.50;;;5.10;;
29120;SDS011;16191;49.548;8.658;2024-02-21T01:04:03;34.28;;;6.25;;
29120;SDS011;16191;49.548;8.658;2024-02-21T01:06:30;22.63;;;4.95;;
29120;SDS011;16191;49.548;8.658;2024-02-21T01:08:57;21.90;;;5.30;;
29120;SDS011;16191;49.548;8.658;2024-02-21T01:11:23;18.20;;;5.30;;
29120;SDS011;16191;49.548;8.658;2024-02-21T01:13:50;18.88;;;5.00;;
29120;SDS011;16191;49.548;8.658;2024-02-21T01:16:17;19.70;;;5.13;;
29120;SDS011;16191;49.548;8.658;2024-02-21T01:18:44;26.38;;;5.82;;
29120;SDS011;16191;49.548;8.658;2024-02-21T01:21:10;24.88;;;5.20;;
29120;SDS011;16191;49.548;8.658;2024-02-21T01:23:37;16.08;;;4.30;;
29120;SDS011;16191;49.548;8.658;2024-02-21T01:26:04;16.15;;;4.53;;
29120;SDS011;16191;49.548;8.658;2024-02-21T01:28:31;17.95;;;3.92;;
29120;SDS011;16191;49.548;8.658;2024-02-21T01:30:58;18.70;;;4.85;;
29120;SDS011;16191;49.548;8.658;2024-02-21T01:33:25;12.70;;;4.55;;
29120;SDS011;16191;49.548;8.658;2024-02-21T01:35:52;20.77;;;5.22;;
29120;SDS011;16191;49.548;8.658;2024-02-21T01:38:19;18.77;;;4.22;;
29120;SDS011;16191;49.548;8.658;2024-02-21T01:40:46;16.95;;;4.78;;
29120;SDS011;16191;49.548;8.658;2024-02-21T01:43:16;21.10;;;4.60;;
29120;SDS011;16191;49.548;8.658;2024-02-21T01:45:51;24.35;;;4.97;;
29120;SDS011;16191;49.548;8.658;2024-02-21T01:48:20;16.92;;;5.28;;
29120;SDS011;16191;49.548;8.658;2024-02-21T01:50:49;21.65;;;4.93;;
29120;SDS011;16191;49.548;8.658;2024-02-21T01:53:17;15.75;;;4.13;;
29120;SDS011;16191;49.548;8.658;2024-02-21T01:58:14;21.50;;;4.88;;
29120;SDS011;16191;49.548;8.658;2024-02-21T02:00:42;15.63;;;4.18;;
29120;SDS011;16191;49.548;8.658;2024-02-21T02:03:10;22.67;;;5.20;;
29120;SDS011;16191;49.548;8.658;2024-02-21T02:05:44;17.85;;;4.97;;
29120;SDS011;16191;49.548;8.658;2024-02-21T02:08:15;15.40;;;4.25;;
29120;SDS011;16191;49.548;8.658;2024-02-21T02:10:43;18.33;;;4.93;;
29120;SDS011;16191;49.548;8.658;2024-02-21T02:13:10;18.25;;;4.32;;
29120;SDS011;16191;49.548;8.658;2024-02-21T02:15:45;18.52;;;4.65;;
29120;SDS011;16191;49.548;8.658;2024-02-21T02:18:13;17.10;;;4.78;;
29120;SDS011;16191;49.548;8.658;2024-02-21T02:20:41;15.02;;;4.20;;
29120;SDS011;16191;49.548;8.658;2024-02-21T02:25:48;19.70;;;4.90;;
29120;SDS011;16191;49.548;8.658;2024-02-21T02:28:15;20.23;;;4.32;;
29120;SDS011;16191;49.548;8.658;2024-02-21T02:30:42;18.10;;;4.45;;
29120;SDS011;16191;49.548;8.658;2024-02-21T02:33:09;19.08;;;4.00;;
29120;SDS011;16191;49.548;8.658;2024-02-21T02:35:36;16.25;;;5.18;;
29120;SDS011;16191;49.548;8.658;2024-02-21T02:38:03;18.92;;;5.00;;
29120;SDS011;16191;49.548;8.658;2024-02-21T02:40:31;21.00;;;4.65;;
29120;SDS011;16191;49.548;8.658;2024-02-21T02:43:00;19.05;;;4.53;;
29120;SDS011;16191;49.548;8.658;2024-02-21T02:45:27;18.35;;;4.68;;
29120;SDS011;16191;49.548;8.658;2024-02-21T02:47:53;18.77;;;4.78;;
29120;SDS011;16191;49.548;8.658;2024-02-21T02:50:21;18.40;;;4.68;;
29120;SDS011;16191;49.548;8.658;2024-02-21T02:53:07;15.50;;;4.72;;
29120;SDS011;16191;49.548;8.658;2024-02-21T02:55:55;20.58;;;4.95;;
29120;SDS011;16191;49.548;8.658;2024-02-21T02:58:45;17.75;;;4.72;;
29120;SDS011;16191;49.548;8.658;2024-02-21T03:01:35;18.20;;;4.38;;
29120;SDS011;16191;49.548;8.658;2024-02-21T03:04:22;11.95;;;4.18;;
29120;SDS011;16191;49.548;8.658;2024-02-21T03:07:09;19.98;;;4.22;;
29120;SDS011;16191;49.548;8.658;2024-02-21T03:09:38;16.02;;;5.00;;
29120;SDS011;16191;49.548;8.658;2024-02-21T03:12:05;14.20;;;4.13;;
29120;SDS011;16191;49.548;8.658;2024-02-21T03:14:32;12.25;;;4.38;;
29120;SDS011;16191;49.548;8.658;2024-02-21T03:16:59;15.15;;;4.60;;
29120;SDS011;16191;49.548;8.658;2024-02-21T03:19:27;16.15;;;3.80;;
29120;SDS011;16191;49.548;8.658;2024-02-21T03:21:54;24.33;;;4.47;;
29120;SDS011;16191;49.548;8.658;2024-02-21T03:24:21;20.17;;;5.25;;
29120;SDS011;16191;49.548;8.658;2024-02-21T03:26:48;18.50;;;5.25;;
29120;SDS011;16191;49.548;8.658;2024-02-21T03:29:17;22.10;;;5.73;;
29120;SDS011;16191;49.548;8.658;2024-02-21T03:31:44;18.55;;;4.55;;
29120;SDS011;16191;49.548;8.658;2024-02-21T03:34:11;20.02;;;5.60;;
29120;SDS011;16191;49.548;8.658;2024-02-21T03:36:38;20.75;;;5.25;;
29120;SDS011;16191;49.548;8.658;2024-02-21T03:39:05;16.45;;;5.18;;
29120;SDS011;16191;49.548;8.658;2024-02-21T03:41:31;17.38;;;4.57;;
29120;SDS011;16191;49.548;8.658;2024-02-21T03:43:58;18.52;;;4.95;;
29120;SDS011;16191;49.548;8.658;2024-02-21T03:46:25;18.67;;;4.10;;
29120;SDS011;16191;49.548;8.658;2024-02-21T03:48:54;21.08;;;4.45;;
29120;SDS011;16191;49.548;8.658;2024-02-21T03:51:21;16.17;;;4.32;;
29120;SDS011;16191;49.548;8.658;2024-02-21T03:53:48;18.77;;;4.60;;
29120;SDS011;16191;49.548;8.658;2024-02-21T03:56:14;15.82;;;4.40;;
29120;SDS011;16191;49.548;8.658;2024-02-21T03:58:41;18.52;;;4.30;;
29120;SDS011;16191;49.548;8.658;2024-02-21T04:01:08;20.27;;;4.38;;
29120;SDS011;16191;49.548;8.658;2024-02-21T04:03:35;19.05;;;4.95;;
29120;SDS011;16191;49.548;8.658;2024-02-21T04:06:02;18.05;;;4.68;;
29120;SDS011;16191;49.548;8.658;2024-02-21T04:08:29;17.05;;;4.85;;
29120;SDS011;16191;49.548;8.658;2024-02-21T04:10:56;20.38;;;5.13;;
29120;SDS011;16191;49.548;8.658;2024-02-21T04:13:23;23.02;;;4.88;;
29120;SDS011;16191;49.548;8.658;2024-02-21T04:15:50;19.30;;;4.97;;
29120;SDS011;16191;49.548;8.658;2024-02-21T04:18:17;16.98;;;4.97;;
29120;SDS011;16191;49.548;8.658;2024-02-21T04:20:44;21.08;;;5.55;;
29120;SDS011;16191;49.548;8.658;2024-02-21T04:23:10;14.05;;;3.33;;
29120;SDS011;16191;49.548;8.658;2024-02-21T04:25:37;17.20;;;4.57;;
29120;SDS011;16191;49.548;8.658;2024-02-21T04:28:04;20.08;;;4.78;;
29120;SDS011;16191;49.548;8.658;2024-02-21T04:30:31;17.42;;;3.92;;
29120;SDS011;16191;49.548;8.658;2024-02-21T04:32:58;23.15;;;4.68;;
29120;SDS011;16191;49.548;8.658;2024-02-21T04:35:25;16.95;;;4.63;;
29120;SDS011;16191;49.548;8.658;2024-02-21T04:37:52;16.77;;;4.25;;
29120;SDS011;16191;49.548;8.658;2024-02-21T04:40:18;17.63;;;4.72;;
29120;SDS011;16191;49.548;8.658;2024-02-21T04:42:45;16.65;;;4.82;;
29120;SDS011;16191;49.548;8.658;2024-02-21T04:45:12;20.13;;;4.43;;
29120;SDS011;16191;49.548;8.658;2024-02-21T04:47:39;22.48;;;5.22;;
29120;SDS011;16191;49.548;8.658;2024-02-21T04:50:06;20.90;;;5.35;;
29120;SDS011;16191;49.548;8.658;2024-02-21T04:52:33;16.27;;;4.15;;
29120;SDS011;16191;49.548;8.658;2024-02-21T04:55:01;18.80;;;4.57;;
29120;SDS011;16191;49.548;8.658;2024-02-21T04:57:28;16.88;;;4.40;;
29120;SDS011;16191;49.548;8.658;2024-02-21T04:59:55;17.92;;;4.78;;
29120;SDS011;16191;49.548;8.658;2024-02-21T05:02:21;20.83;;;5.28;;
29120;SDS011;16191;49.548;8.658;2024-02-21T05:04:50;16.90;;;4.63;;
29120;SDS011;16191;49.548;8.658;2024-02-21T05:07:17;27.85;;;4.38;;
29120;SDS011;16191;49.548;8.658;2024-02-21T05:09:45;19.88;;;4.72;;
29120;SDS011;16191;49.548;8.658;2024-02-21T05:12:12;19.35;;;4.72;;
29120;SDS011;16191;49.548;8.658;2024-02-21T05:14:39;19.35;;;3.92;;
29120;SDS011;16191;49.548;8.658;2024-02-21T05:17:05;13.30;;;4.43;;
29120;SDS011;16191;49.548;8.658;2024-02-21T05:19:32;16.17;;;4.10;;
29120;SDS011;16191;49.548;8.658;2024-02-21T05:21:59;13.55;;;3.78;;
29120;SDS011;16191;49.548;8.658;2024-02-21T05:24:26;19.20;;;3.95;;
29120;SDS011;16191;49.548;8.658;2024-02-21T05:26:53;12.30;;;4.65;;
29120;SDS011;16191;49.548;8.658;2024-02-21T05:29:20;15.60;;;3.63;;
29120;SDS011;16191;49.548;8.658;2024-02-21T05:34:17;15.63;;;4.13;;
29120;SDS011;16191;49.548;8.658;2024-02-21T05:36:44;16.10;;;4.45;;
29120;SDS011;16191;49.548;8.658;2024-02-21T05:39:11;13.82;;;4.00;;
29120;SDS011;16191;49.548;8.658;2024-02-21T05:41:39;19.08;;;4.53;;
29120;SDS011;16191;49.548;8.658;2024-02-21T05:44:05;21.73;;;4.78;;
29120;SDS011;16191;49.548;8.658;2024-02-21T05:46:32;16.30;;;4.07;;
29120;SDS011;16191;49.548;8.658;2024-02-21T05:48:59;19.52;;;4.45;;
29120;SDS011;16191;49.548;8.658;2024-02-21T05:51:26;18.42;;;4.95;;
29120;SDS011;16191;49.548;8.658;2024-02-21T05:53:53;18.85;;;5.90;;
29120;SDS011;16191;49.548;8.658;2024-02-21T05:56:19;17.05;;;4.90;;
29120;SDS011;16191;49.548;8.658;2024-02-21T05:58:46;23.00;;;4.68;;
29120;SDS011;16191;49.548;8.658;2024-02-21T06:01:13;17.73;;;4.10;;
29120;SDS011;16191;49.548;8.658;2024-02-21T06:03:40;18.70;;;4.38;;
29120;SDS011;16191;49.548;8.658;2024-02-21T06:06:07;19.42;;;4.90;;
29120;SDS011;16191;49.548;8.658;2024-02-21T06:08:33;13.15;;;3.83;;
29120;SDS011;16191;49.548;8.658;2024-02-21T06:11:00;18.83;;;4.43;;
29120;SDS011;16191;49.548;8.658;2024-02-21T06:13:27;21.90;;;4.65;;
29120;SDS011;16191;49.548;8.658;2024-02-21T06:15:54;17.52;;;5.25;;
29120;SDS011;16191;49.548;8.658;2024-02-21T06:18:21;14.60;;;4.10;;
29120;SDS011;16191;49.548;8.658;2024-02-21T06:20:47;20.42;;;4.38;;
29120;SDS011;16191;49.548;8.658;2024-02-21T06:23:15;15.85;;;4.65;;
29120;SDS011;16191;49.548;8.658;2024-02-21T06:25:45;13.63;;;4.18;;
29120;SDS011;16191;49.548;8.658;2024-02-21T06:28:14;21.15;;;4.40;;
29120;SDS011;16191;49.548;8.658;2024-02-21T06:30:41;16.80;;;4.75;;
29120;SDS011;16191;49.548;8.658;2024-02-21T06:33:07;13.18;;;4.80;;
29120;SDS011;16191;49.548;8.658;2024-02-21T06:35:34;22.80;;;5.10;;
29120;SDS011;16191;49.548;8.658;2024-02-21T06:38:01;12.18;;;4.38;;
29120;SDS011;16191;49.548;8.658;2024-02-21T06:40:28;15.38;;;4.32;;
29120;SDS011;16191;49.548;8.658;2024-02-21T06:42:55;16.70;;;4.40;;
29120;SDS011;16191;49.548;8.658;2024-02-21T06:45:22;13.23;;;4.15;;
29120;SDS011;16191;49.548;8.658;2024-02-21T06:47:48;25.27;;;4.68;;
29120;SDS011;16191;49.548;8.658;2024-02-21T06:50:15;19.02;;;5.05;;
29120;SDS011;16191;49.548;8.658;2024-02-21T06:52:42;18.33;;;4.35;;
29120;SDS011;16191;49.548;8.658;2024-02-21T06:55:09;20.27;;;4.82;;
29120;SDS011;16191;49.548;8.658;2024-02-21T06:57:35;22.55;;;5.55;;
29120;SDS011;16191;49.548;8.658;2024-02-21T07:00:02;17.45;;;4.93;;
29120;SDS011;16191;49.548;8.658;2024-02-21T07:02:30;21.42;;;5.25;;
29120;SDS011;16191;49.548;8.658;2024-02-21T07:04:57;13.57;;;4.05;;
29120;SDS011;16191;49.548;8.658;2024-02-21T07:07:24;17.63;;;4.88;;
29120;SDS011;16191;49.548;8.658;2024-02-21T07:09:51;19.25;;;5.80;;
29120;SDS011;16191;49.548;8.658;2024-02-21T07:12:20;19.45;;;4.90;;
29120;SDS011;16191;49.548;8.658;2024-02-21T07:14:47;21.92;;;5.53;;
29120;SDS011;16191;49.548;8.658;2024-02-21T07:17:14;11.88;;;4.05;;
29120;SDS011;16191;49.548;8.658;2024-02-21T07:19:42;17.92;;;5.15;;
29120;SDS011;16191;49.548;8.658;2024-02-21T07:22:09;24.48;;;5.78;;
29120;SDS011;16191;49.548;8.658;2024-02-21T07:24:35;18.55;;;4.20;;
29120;SDS011;16191;49.548;8.658;2024-02-21T07:27:03;16.33;;;4.78;;
29120;SDS011;16191;49.548;8.658;2024-02-21T07:29:32;11.82;;;4.15;;
29120;SDS011;16191;49.548;8.658;2024-02-21T07:31:59;17.20;;;4.57;;
29120;SDS011;16191;49.548;8.658;2024-02-21T07:34:25;16.85;;;4.57;;
29120;SDS011;16191;49.548;8.658;2024-02-21T07:36:52;18.50;;;4.65;;
29120;SDS011;16191;49.548;8.658;2024-02-21T07:39:19;15.05;;;4.40;;
29120;SDS011;16191;49.548;8.658;2024-02-21T07:41:46;17.98;;;4.18;;
29120;SDS011;16191;49.548;8.658;2024-02-21T07:44:14;20.05;;;4.70;;
29120;SDS011;16191;49.548;8.658;2024-02-21T07:46:41;12.32;;;4.00;;
29120;SDS011;16191;49.548;8.658;2024-02-21T07:49:09;16.52;;;4.35;;
29120;SDS011;16191;49.548;8.658;2024-02-21T07:51:36;14.30;;;5.13;;
29120;SDS011;16191;49.548;8.658;2024-02-21T07:54:02;20.38;;;4.93;;
29120;SDS011;16191;49.548;8.658;2024-02-21T07:56:30;19.55;;;4.75;;
29120;SDS011;16191;49.548;8.658;2024-02-21T07:58:57;24.02;;;5.32;;
29120;SDS011;16191;49.548;8.658;2024-02-21T08:01:24;16.20;;;5.13;;
29120;SDS011;16191;49.548;8.658;2024-02-21T08:03:52;15.40;;;4.60;;
29120;SDS011;16191;49.548;8.658;2024-02-21T08:06:19;15.57;;;4.25;;
29120;SDS011;16191;49.548;8.658;2024-02-21T08:08:45;19.52;;;4.50;;
29120;SDS011;16191;49.548;8.658;2024-02-21T08:11:12;15.63;;;4.38;;
29120;SDS011;16191;49.548;8.658;2024-02-21T08:13:39;14.25;;;4.95;;
29120;SDS011;16191;49.548;8.658;2024-02-21T08:16:06;21.95;;;4.55;;
29120;SDS011;16191;49.548;8.658;2024-02-21T08:18:33;19.83;;;5.10;;
29120;SDS011;16191;49.548;8.658;2024-02-21T08:21:03;16.13;;;4.43;;
29120;SDS011;16191;49.548;8.658;2024-02-21T08:23:30;15.13;;;4.30;;
29120;SDS011;16191;49.548;8.658;2024-02-21T08:25:56;19.98;;;5.07;;
29120;SDS011;16191;49.548;8.658;2024-02-21T08:28:23;21.42;;;4.47;;
29120;SDS011;16191;49.548;8.658;2024-02-21T08:30:50;16.23;;;4.28;;
29120;SDS011;16191;49.548;8.658;2024-02-21T08:33:16;17.75;;;4.32;;
29120;SDS011;16191;49.548;8.658;2024-02-21T08:35:43;21.48;;;4.60;;
29120;SDS011;16191;49.548;8.658;2024-02-21T08:38:10;19.17;;;4.80;;
29120;SDS011;16191;49.548;8.658;2024-02-21T08:40:37;16.90;;;4.68;;
29120;SDS011;16191;49.548;8.658;2024-02-21T08:43:04;14.27;;;4.47;;
29120;SDS011;16191;49.548;8.658;2024-02-21T08:45:31;14.00;;;4.32;;
29120;SDS011;16191;49.548;8.658;2024-02-21T08:47:57;20.65;;;4.45;;
29120;SDS011;16191;49.548;8.658;2024-02-21T08:50:24;15.45;;;4.55;;
29120;SDS011;16191;49.548;8.658;2024-02-21T08:52:55;18.50;;;4.18;;
29120;SDS011;16191;49.548;8.658;2024-02-21T08:55:22;14.70;;;4.22;;
29120;SDS011;16191;49.548;8.658;2024-02-21T08:57:49;14.40;;;4.65;;
29120;SDS011;16191;49.548;8.658;2024-02-21T09:00:15;14.98;;;4.10;;
29120;SDS011;16191;49.548;8.658;2024-02-21T09:02:42;20.23;;;4.43;;
29120;SDS011;16191;49.548;8.658;2024-02-21T09:05:10;22.50;;;4.50;;
29120;SDS011;16191;49.548;8.658;2024-02-21T09:07:38;18.75;;;4.07;;
29120;SDS011;16191;49.548;8.658;2024-02-21T09:10:05;15.05;;;3.53;;
29120;SDS011;16191;49.548;8.658;2024-02-21T09:12:33;13.57;;;4.07;;
29120;SDS011;16191;49.548;8.658;2024-02-21T09:14:59;16.85;;;4.05;;
29120;SDS011;16191;49.548;8.658;2024-02-21T09:17:26;19.02;;;3.60;;
29120;SDS011;16191;49.548;8.658;2024-02-21T09:19:55;17.48;;;4.10;;
29120;SDS011;16191;49.548;8.658;2024-02-21T09:22:26;22.52;;;4.10;;
29120;SDS011;16191;49.548;8.658;2024-02-21T09:24:53;11.20;;;3.25;;
29120;SDS011;16191;49.548;8.658;2024-02-21T09:27:20;15.15;;;3.88;;
29120;SDS011;16191;49.548;8.658;2024-02-21T09:29:47;18.40;;;3.78;;
29120;SDS011;16191;49.548;8.658;2024-02-21T09:32:14;15.57;;;4.00;;
29120;SDS011;16191;49.548;8.658;2024-02-21T09:34:40;20.15;;;4.60;;
29120;SDS011;16191;49.548;8.658;2024-02-21T09:37:07;16.08;;;3.85;;
29120;SDS011;16191;49.548;8.658;2024-02-21T09:39:34;19.20;;;4.32;;
29120;SDS011;16191;49.548;8.658;2024-02-21T09:42:05;22.55;;;3.58;;
29120;SDS011;16191;49.548;8.658;2024-02-21T09:44:38;12.75;;;3.72;;
29120;SDS011;16191;49.548;8.658;2024-02-21T09:49:57;12.60;;;3.58;;
29120;SDS011;16191;49.548;8.658;2024-02-21T09:52:24;18.52;;;3.83;;
29120;SDS011;16191;49.548;8.658;2024-02-21T09:54:53;17.77;;;4.00;;
29120;SDS011;16191;49.548;8.658;2024-02-21T09:57:20;14.63;;;3.90;;
29120;SDS011;16191;49.548;8.658;2024-02-21T09:59:49;19.10;;;4.53;;
29120;SDS011;16191;49.548;8.658;2024-02-21T10:02:16;27.20;;;4.50;;
29120;SDS011;16191;49.548;8.658;2024-02-21T10:04:43;12.90;;;4.05;;
29120;SDS011;16191;49.548;8.658;2024-02-21T10:07:10;16.23;;;4.45;;
29120;SDS011;16191;49.548;8.658;2024-02-21T10:09:37;19.05;;;3.60;;
29120;SDS011;16191;49.548;8.658;2024-02-21T10:12:07;15.38;;;4.03;;
29120;SDS011;16191;49.548;8.658;2024-02-21T10:14:36;13.25;;;3.92;;
29120;SDS011;16191;49.548;8.658;2024-02-21T10:17:03;19.02;;;3.67;;
29120;SDS011;16191;49.548;8.658;2024-02-21T10:19:36;14.43;;;4.25;;
29120;SDS011;16191;49.548;8.658;2024-02-21T10:22:07;15.40;;;3.80;;
29120;SDS011;16191;49.548;8.658;2024-02-21T10:24:35;17.98;;;4.07;;
29120;SDS011;16191;49.548;8.658;2024-02-21T10:27:08;13.27;;;3.67;;
29120;SDS011;16191;49.548;8.658;2024-02-21T10:29:39;15.30;;;3.65;;
29120;SDS011;16191;49.548;8.658;2024-02-21T10:32:09;17.95;;;3.58;;
29120;SDS011;16191;49.548;8.658;2024-02-21T10:34:39;14.23;;;3.97;;
29120;SDS011;16191;49.548;8.658;2024-02-21T10:37:07;11.90;;;3.30;;
29120;SDS011;16191;49.548;8.658;2024-02-21T10:39:39;13.32;;;3.63;;
29120;SDS011;16191;49.548;8.658;2024-02-21T10:42:07;12.20;;;3.45;;
29120;SDS011;16191;49.548;8.658;2024-02-21T10:44:37;15.77;;;3.17;;
29120;SDS011;16191;49.548;8.658;2024-02-21T10:47:10;12.77;;;3.42;;
29120;SDS011;16191;49.548;8.658;2024-02-21T10:49:40;11.93;;;3.92;;
29120;SDS011;16191;49.548;8.658;2024-02-21T10:55:04;16.27;;;3.50;;
29120;SDS011;16191;49.548;8.658;2024-02-21T10:57:34;8.63;;;2.80;;
29120;SDS011;16191;49.548;8.658;2024-02-21T11:00:02;12.98;;;3.35;;
29120;SDS011;16191;49.548;8.658;2024-02-21T11:02:30;10.02;;;2.92;;
29120;SDS011;16191;49.548;8.658;2024-02-21T11:04:58;13.27;;;3.28;;
29120;SDS011;16191;49.548;8.658;2024-02-21T11:07:25;12.98;;;3.60;;
29120;SDS011;16191;49.548;8.658;2024-02-21T11:09:53;14.35;;;4.10;;
29120;SDS011;16191;49.548;8.658;2024-02-21T11:12:23;12.57;;;4.20;;
29120;SDS011;16191;49.548;8.658;2024-02-21T11:14:52;14.80;;;4.03;;
29120;SDS011;16191;49.548;8.658;2024-02-21T11:17:19;17.80;;;3.65;;
29120;SDS011;16191;49.548;8.658;2024-02-21T11:22:19;11.73;;;3.67;;
29120;SDS011;16191;49.548;8.658;2024-02-21T11:24:49;14.45;;;4.22;;
29120;SDS011;16191;49.548;8.658;2024-02-21T11:27:18;16.75;;;3.95;;
29120;SDS011;16191;49.548;8.658;2024-02-21T11:29:58;14.40;;;4.18;;
29120;SDS011;16191;49.548;8.658;2024-02-21T11:32:26;11.68;;;3.50;;
29120;SDS011;16191;49.548;8.658;2024-02-21T11:37:34;9.52;;;3.10;;
29120;SDS011;16191;49.548;8.658;2024-02-21T11:40:05;14.80;;;3.75;;
29120;SDS011;16191;49.548;8.658;2024-02-21T11:42:38;11.65;;;3.00;;
29120;SDS011;16191;49.548;8.658;2024-02-21T11:45:06;14.48;;;3.40;;
29120;SDS011;16191;49.548;8.658;2024-02-21T11:47:35;19.65;;;3.17;;
29120;SDS011;16191;49.548;8.658;2024-02-21T11:50:09;9.50;;;3.55;;
29120;SDS011;16191;49.548;8.658;2024-02-21T11:52:36;8.98;;;2.92;;
29120;SDS011;16191;49.548;8.658;2024-02-21T11:55:03;14.57;;;2.67;;
29120;SDS011;16191;49.548;8.658;2024-02-21T11:57:31;16.02;;;3.00;;
29120;SDS011;16191;49.548;8.658;2024-02-21T11:59:58;19.17;;;3.53;;
29120;SDS011;16191;49.548;8.658;2024-02-21T12:02:30;11.68;;;2.72;;
29120;SDS011;16191;49.548;8.658;2024-02-21T12:04:57;13.38;;;3.60;;
29120;SDS011;16191;49.548;8.658;2024-02-21T12:07:24;13.60;;;3.47;;
29120;SDS011;16191;49.548;8.658;2024-02-21T12:09:51;14.40;;;3.17;;
29120;SDS011;16191;49.548;8.658;2024-02-21T12:12:19;12.90;;;3.17;;
29120;SDS011;16191;49.548;8.658;2024-02-21T12:14:53;11.23;;;2.75;;
29120;SDS011;16191;49.548;8.658;2024-02-21T12:17:26;15.40;;;3.55;;
29120;SDS011;16191;49.548;8.658;2024-02-21T12:19:53;14.02;;;3.20;;
29120;SDS011;16191;49.548;8.658;2024-02-21T12:22:20;9.20;;;2.58;;
29120;SDS011;16191;49.548;8.658;2024-02-21T12:24:47;13.10;;;3.80;;
29120;SDS011;16191;49.548;8.658;2024-02-21T12:27:15;12.35;;;2.85;;
29120;SDS011;16191;49.548;8.658;2024-02-21T12:29:42;6.20;;;2.58;;
29120;SDS011;16191;49.548;8.658;2024-02-21T12:32:08;11.95;;;2.67;;
29120;SDS011;16191;49.548;8.658;2024-02-21T12:34:37;8.52;;;2.83;;
29120;SDS011;16191;49.548;8.658;2024-02-21T12:37:19;12.18;;;3.20;;
29120;SDS011;16191;49.548;8.658;2024-02-21T12:39:47;14.82;;;3.35;;
29120;SDS011;16191;49.548;8.658;2024-02-21T12:42:14;12.60;;;2.95;;
29120;SDS011;16191;49.548;8.658;2024-02-21T12:44:41;7.90;;;2.67;;
29120;SDS011;16191;49.548;8.658;2024-02-21T12:47:08;14.57;;;3.53;;
29120;SDS011;16191;49.548;8.658;2024-02-21T12:49:35;11.75;;;3.13;;
29120;SDS011;16191;49.548;8.658;2024-02-21T12:52:03;9.00;;;2.90;;
29120;SDS011;16191;49.548;8.658;2024-02-21T12:54:30;10.43;;;2.83;;
29120;SDS011;16191;49.548;8.658;2024-02-21T12:56:57;15.88;;;3.38;;
29120;SDS011;16191;49.548;8.658;2024-02-21T12:59:29;12.95;;;2.88;;
29120;SDS011;16191;49.548;8.658;2024-02-21T13:01:56;13.05;;;3.25;;
29120;SDS011;16191;49.548;8.658;2024-02-21T13:04:23;9.70;;;2.70;;
29120;SDS011;16191;49.548;8.658;2024-02-21T13:06:54;9.88;;;2.45;;
29120;SDS011;16191;49.548;8.658;2024-02-21T13:09:24;12.57;;;2.67;;
29120;SDS011;16191;49.548;8.658;2024-02-21T13:11:51;14.50;;;2.85;;
29120;SDS011;16191;49.548;8.658;2024-02-21T13:14:18;13.18;;;3.22;;
29120;SDS011;16191;49.548;8.658;2024-02-21T13:16:45;10.90;;;2.67;;
29120;SDS011;16191;49.548;8.658;2024-02-21T13:19:12;16.58;;;3.33;;
29120;SDS011;16191;49.548;8.658;2024-02-21T13:21:40;12.48;;;2.80;;
29120;SDS011;16191;49.548;8.658;2024-02-21T13:24:07;10.27;;;2.70;;
29120;SDS011;16191;49.548;8.658;2024-02-21T13:26:34;15.05;;;3.13;;
29120;SDS011;16191;49.548;8.658;2024-02-21T13:29:01;11.48;;;2.38;;
29120;SDS011;16191;49.548;8.658;2024-02-21T13:31:28;15.93;;;3.85;;
29120;SDS011;16191;49.548;8.658;2024-02-21T13:33:55;10.65;;;2.80;;
29120;SDS011;16191;49.548;8.658;2024-02-21T13:36:21;14.95;;;3.03;;
29120;SDS011;16191;49.548;8.658;2024-02-21T13:38:48;10.02;;;3.38;;
29120;SDS011;16191;49.548;8.658;2024-02-21T13:41:15;13.30;;;3.75;;
29120;SDS011;16191;49.548;8.658;2024-02-21T13:43:42;15.10;;;2.90;;
29120;SDS011;16191;49.548;8.658;2024-02-21T13:46:09;13.63;;;2.92;;
29120;SDS011;16191;49.548;8.658;2024-02-21T13:48:36;10.73;;;2.90;;
29120;SDS011;16191;49.548;8.658;2024-02-21T13:51:06;12.85;;;2.65;;
29120;SDS011;16191;49.548;8.658;2024-02-21T13:53:33;13.93;;;2.65;;
29120;SDS011;16191;49.548;8.658;2024-02-21T13:56:01;9.88;;;2.83;;
29120;SDS011;16191;49.548;8.658;2024-02-21T13:58:27;14.25;;;2.78;;
29120;SDS011;16191;49.548;8.658;2024-02-21T14:00:54;14.48;;;2.88;;
29120;SDS011;16191;49.548;8.658;2024-02-21T14:03:23;11.32;;;2.97;;
29120;SDS011;16191;49.548;8.658;2024-02-21T14:05:50;15.80;;;2.65;;
29120;SDS011;16191;49.548;8.658;2024-02-21T14:08:16;11.38;;;2.70;;
29120;SDS011;16191;49.548;8.658;2024-02-21T14:10:43;14.57;;;3.10;;
29120;SDS011;16191;49.548;8.658;2024-02-21T14:13:10;8.43;;;2.45;;
29120;SDS011;16191;49.548;8.658;2024-02-21T14:15:37;10.70;;;2.60;;
29120;SDS011;16191;49.548;8.658;2024-02-21T14:18:07;10.65;;;2.42;;
29120;SDS011;16191;49.548;8.658;2024-02-21T14:20:36;6.80;;;2.60;;
29120;SDS011;16191;49.548;8.658;2024-02-21T14:23:03;9.57;;;2.65;;
29120;SDS011;16191;49.548;8.658;2024-02-21T14:25:31;9.00;;;2.30;;
29120;SDS011;16191;49.548;8.658;2024-02-21T14:27:59;13.15;;;2.97;;
29120;SDS011;16191;49.548;8.658;2024-02-21T14:30:29;11.45;;;3.13;;
29120;SDS011;16191;49.548;8.658;2024-02-21T14:32:56;14.23;;;2.30;;
29120;SDS011;16191;49.548;8.658;2024-02-21T14:35:23;10.25;;;2.63;;
29120;SDS011;16191;49.548;8.658;2024-02-21T14:37:50;8.85;;;2.65;;
29120;SDS011;16191;49.548;8.658;2024-02-21T14:40:19;9.02;;;2.47;;
29120;SDS011;16191;49.548;8.658;2024-02-21T14:42:48;15.13;;;3.28;;
29120;SDS011;16191;49.548;8.658;2024-02-21T14:45:15;9.70;;;2.70;;
29120;SDS011;16191;49.548;8.658;2024-02-21T14:47:41;11.70;;;3.03;;
29120;SDS011;16191;49.548;8.658;2024-02-21T14:50:08;9.27;;;2.60;;
29120;SDS011;16191;49.548;8.658;2024-02-21T14:52:35;8.77;;;2.17;;
29120;SDS011;16191;49.548;8.658;2024-02-21T14:55:03;6.38;;;2.10;;
29120;SDS011;16191;49.548;8.658;2024-02-21T14:57:31;12.48;;;2.25;;